Time;durP1;ratioP1;P1;durP2;ratioP2;P2;SDS_P1;SDS_P2;PMS_P1;PMS_P2;Temp;Humidity;BMP_temperature;BMP_pressure;BME280_temperature;BME280_humidity;BME280_pressure;Samples;Min_cycle;Max_cycle;Signal;HPM_P1;HPM_P2
2023/01/24 00:02:14;;;;;;;24.07;15.03;;;2.60;99.90;;;;;;5054023;28;20475;-70
2023/01/24 00:04:42;;;;;;;24.60;15.40;;;2.60;99.90;;;;;;5055027;28;20542;-70
2023/01/24 00:07:09;;;;;;;32.33;18.50;;;2.60;99.90;;;;;;5055005;28;20466;-69
2023/01/24 00:09:36;;;;;;;26.97;14.83;;;2.60;99.90;;;;;;5054494;28;20462;-68
2023/01/24 00:12:03;;;;;;;26.40;16.60;;;2.60;99.90;;;;;;5054354;28;20448;-69
2023/01/24 00:14:29;;;;;;;28.50;16.40;;;2.60;99.90;;;;;;5054408;28;20792;-69
2023/01/24 00:16:56;;;;;;;22.43;15.20;;;2.60;99.90;;;;;;5055036;28;20936;-69
2023/01/24 00:19:23;;;;;;;24.00;15.10;;;2.60;99.90;;;;;;5053992;28;20546;-68
2023/01/24 00:21:51;;;;;;;23.77;14.63;;;2.60;99.90;;;;;;5054076;28;20551;-69
2023/01/24 00:24:18;;;;;;;25.50;15.37;;;2.50;99.90;;;;;;5054189;28;20462;-68
2023/01/24 00:26:45;;;;;;;25.20;16.20;;;2.60;99.90;;;;;;5054233;28;21015;-69
2023/01/24 00:29:12;;;;;;;22.30;15.50;;;2.60;99.90;;;;;;5054632;28;20455;-70
2023/01/24 00:31:39;;;;;;;23.80;15.63;;;2.50;99.90;;;;;;5054400;28;20550;-68
2023/01/24 00:34:05;;;;;;;21.03;14.10;;;2.50;99.90;;;;;;5054526;28;20488;-70
2023/01/24 00:36:32;;;;;;;22.47;14.03;;;2.40;99.90;;;;;;5054232;28;20463;-70
2023/01/24 00:39:00;;;;;;;20.67;12.80;;;2.40;99.90;;;;;;5054713;28;20454;-69
2023/01/24 00:41:27;;;;;;;21.20;14.27;;;2.50;99.90;;;;;;5054361;28;20459;-69
2023/01/24 00:43:54;;;;;;;23.33;14.27;;;2.50;99.90;;;;;;5054098;28;20493;-70
2023/01/24 00:46:21;;;;;;;22.93;13.70;;;2.50;99.90;;;;;;5058131;28;20498;-69
2023/01/24 00:48:48;;;;;;;20.40;13.43;;;2.40;99.90;;;;;;5058348;28;20439;-69
2023/01/24 00:51:15;;;;;;;24.20;13.40;;;2.40;99.90;;;;;;5057841;28;20465;-70
2023/01/24 00:53:41;;;;;;;24.43;13.27;;;2.40;99.90;;;;;;5057950;28;20534;-69
2023/01/24 00:56:10;;;;;;;21.50;14.23;;;2.40;99.90;;;;;;5057777;28;20942;-70
2023/01/24 00:58:37;;;;;;;18.37;13.03;;;2.40;99.90;;;;;;5058224;28;20550;-70
2023/01/24 01:01:03;;;;;;;24.93;13.20;;;2.40;99.90;;;;;;5058115;28;20546;-70
2023/01/24 01:03:31;;;;;;;18.73;12.27;;;2.40;99.90;;;;;;5058209;28;20578;-70
2023/01/24 01:06:00;;;;;;;16.73;12.13;;;2.40;99.90;;;;;;5058402;28;20553;-69
2023/01/24 01:08:26;;;;;;;18.63;13.47;;;2.40;99.90;;;;;;5057868;28;20497;-70
2023/01/24 01:10:53;;;;;;;19.87;13.00;;;2.40;99.90;;;;;;5058102;28;20477;-70
2023/01/24 01:13:22;;;;;;;17.70;12.73;;;2.40;99.90;;;;;;5057867;28;20861;-70
2023/01/24 01:15:48;;;;;;;19.20;12.97;;;2.40;99.90;;;;;;5058007;28;20460;-69
2023/01/24 01:18:15;;;;;;;22.93;12.90;;;2.30;99.90;;;;;;5057693;28;20470;-69
2023/01/24 01:20:42;;;;;;;19.97;12.80;;;2.30;99.90;;;;;;5058067;28;20466;-69
2023/01/24 01:23:09;;;;;;;17.60;13.20;;;2.30;99.90;;;;;;5057886;28;20951;-70
2023/01/24 01:25:39;;;;;;;16.10;11.27;;;2.30;99.90;;;;;;5057727;28;20469;-70
2023/01/24 01:28:06;;;;;;;16.13;11.43;;;2.30;99.90;;;;;;5057989;28;20451;-70
2023/01/24 01:30:34;;;;;;;19.40;12.20;;;2.30;99.90;;;;;;5057637;28;20550;-70
2023/01/24 01:33:01;;;;;;;15.70;10.77;;;2.30;99.90;;;;;;5058103;28;20550;-69
2023/01/24 01:35:28;;;;;;;17.47;12.40;;;2.20;99.90;;;;;;5057859;28;20546;-69
2023/01/24 01:37:55;;;;;;;13.40;10.33;;;2.20;99.90;;;;;;5057302;28;20475;-68
2023/01/24 01:40:22;;;;;;;16.00;10.77;;;2.20;99.90;;;;;;5058047;28;20565;-69
2023/01/24 01:42:54;;;;;;;16.33;10.90;;;2.20;99.90;;;;;;5057410;28;20482;-70
2023/01/24 01:45:36;;;;;;;15.37;10.37;;;2.10;99.90;;;;;;5057374;28;20947;-69
2023/01/24 01:48:11;;;;;;;13.83;10.27;;;2.10;99.90;;;;;;5057668;28;20782;-70
2023/01/24 01:50:41;;;;;;;13.30;9.77;;;2.10;99.90;;;;;;5058122;28;20442;-71
2023/01/24 01:53:08;;;;;;;13.40;9.67;;;2.10;99.90;;;;;;5057608;28;20541;-69
2023/01/24 01:55:39;;;;;;;11.70;8.37;;;2.10;99.90;;;;;;5057055;28;20554;-69
2023/01/24 01:58:07;;;;;;;13.00;9.70;;;2.10;99.90;;;;;;5056695;28;20447;-68
2023/01/24 02:00:36;;;;;;;13.10;9.67;;;2.10;99.90;;;;;;5056505;28;20920;-68
2023/01/24 02:05:53;;;;;;;10.17;8.37;;;2.10;99.90;;;;;;5056803;28;20444;-69
2023/01/24 02:08:22;;;;;;;13.20;9.40;;;2.10;99.90;;;;;;5057231;28;20542;-69
2023/01/24 02:13:38;;;;;;;14.17;9.60;;;2.10;99.90;;;;;;5056969;28;20477;-69
2023/01/24 02:16:07;;;;;;;17.93;9.77;;;2.00;99.90;;;;;;5057193;28;20458;-69
2023/01/24 02:18:36;;;;;;;13.80;9.57;;;2.00;99.90;;;;;;5057396;28;20459;-69
2023/01/24 02:21:04;;;;;;;15.87;10.53;;;2.00;99.90;;;;;;5057429;28;20473;-69
2023/01/24 02:23:42;;;;;;;11.40;9.00;;;2.00;99.90;;;;;;5056886;28;20479;-69
2023/01/24 02:26:12;;;;;;;10.63;8.43;;;2.00;99.90;;;;;;5057008;28;20443;-69
2023/01/24 02:28:41;;;;;;;15.20;8.43;;;2.00;99.90;;;;;;5057052;28;20454;-69
2023/01/24 02:31:08;;;;;;;12.30;8.33;;;2.00;99.90;;;;;;5057729;28;20469;-70
2023/01/24 02:33:35;;;;;;;11.53;9.37;;;1.90;99.90;;;;;;5057091;28;20481;-69
2023/01/24 02:36:15;;;;;;;12.33;8.77;;;1.90;99.90;;;;;;5057404;28;20455;-69
2023/01/24 02:38:45;;;;;;;12.77;9.37;;;1.90;99.90;;;;;;5056880;28;20439;-69
2023/01/24 02:41:14;;;;;;;14.80;9.50;;;1.90;99.90;;;;;;5056490;28;20459;-69
2023/01/24 02:43:46;;;;;;;12.43;9.10;;;1.90;99.90;;;;;;5055934;28;20775;-69
2023/01/24 02:46:13;;;;;;;12.87;9.67;;;1.90;99.90;;;;;;5055768;28;20534;-70
2023/01/24 02:48:40;;;;;;;10.77;8.37;;;1.80;99.90;;;;;;5056170;28;20451;-69
2023/01/24 02:53:51;;;;;;;11.30;8.40;;;1.80;99.90;;;;;;5056191;28;20423;-68
2023/01/24 02:59:04;;;;;;;10.43;8.37;;;1.70;99.90;;;;;;5055728;28;20426;-69
2023/01/24 03:01:31;;;;;;;11.80;8.70;;;1.80;99.90;;;;;;5055333;28;20549;-69
2023/01/24 03:03:59;;;;;;;11.77;8.00;;;1.80;99.90;;;;;;5055625;28;20486;-68
2023/01/24 03:06:25;;;;;;;12.00;8.53;;;1.80;99.90;;;;;;5055480;28;20885;-68
2023/01/24 03:08:52;;;;;;;12.87;9.27;;;1.80;99.90;;;;;;5055288;28;20558;-69
2023/01/24 03:11:21;;;;;;;14.03;9.70;;;1.90;99.90;;;;;;5055297;28;20465;-68
2023/01/24 03:35:53;;;;;;;8.57;7.50;;;1.80;99.90;;;;;;5054855;28;20480;-69
2023/01/24 03:41:05;;;;;;;11.40;8.70;;;1.90;99.90;;;;;;5054744;28;20434;-69
2023/01/24 03:43:33;;;;;;;11.13;8.60;;;1.80;99.90;;;;;;5054755;28;20569;-69
2023/01/24 03:46:00;;;;;;;12.13;9.03;;;1.90;99.90;;;;;;5055009;28;20491;-69
2023/01/24 03:48:33;;;;;;;12.13;8.57;;;1.90;99.90;;;;;;5054921;28;20455;-69
2023/01/24 03:53:45;;;;;;;11.00;9.10;;;1.90;99.90;;;;;;5054462;28;20914;-69
2023/01/24 03:56:12;;;;;;;13.80;8.27;;;1.90;99.90;;;;;;5054689;28;20537;-69
2023/01/24 03:58:40;;;;;;;10.67;7.97;;;1.90;99.90;;;;;;5054813;28;20455;-69
2023/01/24 04:01:07;;;;;;;10.10;8.47;;;2.00;99.90;;;;;;5054697;28;20796;-69
2023/01/24 04:03:34;;;;;;;10.57;7.87;;;1.90;99.90;;;;;;5054644;28;20569;-70
2023/01/24 04:06:01;;;;;;;10.40;8.33;;;1.90;99.90;;;;;;5055038;28;20541;-69
2023/01/24 04:08:28;;;;;;;10.33;8.00;;;1.90;99.90;;;;;;5055139;28;20506;-70
2023/01/24 04:10:56;;;;;;;10.43;8.93;;;1.90;99.90;;;;;;5055042;28;20543;-69
2023/01/24 04:13:23;;;;;;;12.00;8.40;;;1.90;99.90;;;;;;5055212;28;20462;-70
2023/01/24 04:15:51;;;;;;;13.10;9.57;;;1.80;99.90;;;;;;5055083;28;20646;-69
2023/01/24 04:18:18;;;;;;;11.50;8.40;;;1.80;99.90;;;;;;5055230;28;20466;-69
2023/01/24 04:20:45;;;;;;;11.60;8.87;;;1.80;99.90;;;;;;5058310;28;20465;-69
2023/01/24 04:23:12;;;;;;;10.37;8.50;;;1.80;99.90;;;;;;5059437;28;20931;-68
2023/01/24 04:25:39;;;;;;;14.27;10.20;;;1.80;99.90;;;;;;5059043;28;20462;-69
2023/01/24 04:28:06;;;;;;;12.07;8.43;;;1.80;99.90;;;;;;5058854;28;20486;-69
2023/01/24 04:30:33;;;;;;;11.13;8.70;;;1.80;99.90;;;;;;5058555;28;20531;-69
2023/01/24 04:33:01;;;;;;;14.33;9.20;;;1.80;99.90;;;;;;5058294;28;20542;-68
2023/01/24 04:35:30;;;;;;;10.90;9.10;;;1.80;99.90;;;;;;5058724;28;20455;-68
2023/01/24 04:38:00;;;;;;;12.50;9.53;;;1.70;99.90;;;;;;5058420;28;20565;-69
2023/01/24 04:40:27;;;;;;;10.33;8.60;;;1.70;99.90;;;;;;5058643;28;20787;-69
2023/01/24 04:42:57;;;;;;;11.63;9.13;;;1.70;99.90;;;;;;5058655;28;20514;-69
2023/01/24 04:45:24;;;;;;;15.87;9.33;;;1.70;99.90;;;;;;5058517;28;20469;-69
2023/01/24 04:47:51;;;;;;;11.40;9.27;;;1.70;99.90;;;;;;5058453;28;20926;-70
2023/01/24 04:50:19;;;;;;;11.70;8.97;;;1.80;99.90;;;;;;5058374;28;20786;-69
2023/01/24 04:52:46;;;;;;;11.20;8.90;;;1.80;99.90;;;;;;5058597;28;20953;-69
2023/01/24 04:55:13;;;;;;;12.23;9.27;;;1.80;99.90;;;;;;5058144;28;20958;-69
2023/01/24 04:57:39;;;;;;;12.23;8.90;;;1.80;99.90;;;;;;5058539;28;20469;-69
2023/01/24 05:00:09;;;;;;;13.00;8.80;;;1.70;99.90;;;;;;5058741;28;20469;-69
2023/01/24 05:02:37;;;;;;;12.50;8.87;;;1.70;99.90;;;;;;5058681;28;20798;-69
2023/01/24 05:05:04;;;;;;;15.37;10.10;;;1.70;99.90;;;;;;5057919;28;20518;-70
2023/01/24 05:07:32;;;;;;;13.70;10.50;;;1.70;99.90;;;;;;5057602;28;20494;-69
2023/01/24 05:09:59;;;;;;;13.17;10.23;;;1.60;99.90;;;;;;5057617;28;20469;-68
2023/01/24 05:12:26;;;;;;;13.13;10.00;;;1.70;99.90;;;;;;5057896;28;20458;-69
2023/01/24 05:14:53;;;;;;;11.57;9.47;;;1.70;99.90;;;;;;5057866;28;20506;-69
2023/01/24 05:17:19;;;;;;;13.43;9.77;;;1.70;99.90;;;;;;5057896;28;20465;-68
2023/01/24 05:19:46;;;;;;;12.90;9.47;;;1.70;99.90;;;;;;5057654;28;20465;-69
2023/01/24 05:22:13;;;;;;;12.50;10.40;;;1.70;99.90;;;;;;5057549;28;21003;-68
2023/01/24 05:24:41;;;;;;;12.97;10.10;;;1.70;99.90;;;;;;5057425;28;20491;-69
2023/01/24 05:27:08;;;;;;;13.37;9.30;;;1.70;99.90;;;;;;5057254;28;20455;-69
2023/01/24 05:29:35;;;;;;;14.73;10.73;;;1.70;99.90;;;;;;5057814;28;20790;-69
2023/01/24 05:32:02;;;;;;;11.30;9.30;;;1.70;99.90;;;;;;5056022;28;20466;-69
2023/01/24 05:34:29;;;;;;;14.20;10.17;;;1.80;99.90;;;;;;5058129;28;20461;-69
2023/01/24 05:36:56;;;;;;;10.77;9.43;;;1.80;99.90;;;;;;5057271;28;20558;-70
2023/01/24 05:39:23;;;;;;;11.43;9.13;;;1.80;99.90;;;;;;5056760;28;20459;-70
2023/01/24 05:41:51;;;;;;;14.53;9.67;;;1.80;99.90;;;;;;5057341;28;20541;-70
2023/01/24 05:44:18;;;;;;;13.80;9.70;;;1.80;99.90;;;;;;5056715;28;20578;-68
2023/01/24 05:46:44;;;;;;;13.10;10.20;;;1.80;99.90;;;;;;5057451;28;20459;-69
2023/01/24 05:49:11;;;;;;;13.30;10.20;;;1.70;99.90;;;;;;5057228;28;20451;-69
2023/01/24 05:51:38;;;;;;;14.23;10.40;;;1.70;99.90;;;;;;5056979;28;20459;-68
2023/01/24 05:54:05;;;;;;;14.13;10.30;;;1.70;99.90;;;;;;5056963;28;20462;-69
2023/01/24 05:56:32;;;;;;;67.97;40.37;;;1.70;99.90;;;;;;5057255;28;20487;-69
2023/01/24 05:59:01;;;;;;;17.67;12.53;;;1.70;99.90;;;;;;5056976;28;20790;-70
2023/01/24 06:01:28;;;;;;;13.40;8.93;;;1.80;99.90;;;;;;5056987;28;20513;-69
2023/01/24 06:03:55;;;;;;;13.93;9.90;;;1.70;99.90;;;;;;5056515;28;20485;-69
2023/01/24 06:06:23;;;;;;;18.23;10.00;;;1.70;99.90;;;;;;5057245;28;20466;-69
2023/01/24 06:08:51;;;;;;;14.50;10.13;;;1.70;99.90;;;;;;5057230;28;20546;-69
2023/01/24 06:11:19;;;;;;;13.03;9.50;;;1.70;99.90;;;;;;5057265;28;20455;-70
2023/01/24 06:13:47;;;;;;;13.33;9.47;;;1.60;99.90;;;;;;5056681;28;20946;-70
2023/01/24 06:16:17;;;;;;;13.00;9.63;;;1.70;99.90;;;;;;5056844;28;20465;-69
2023/01/24 06:18:44;;;;;;;14.10;9.83;;;1.70;99.90;;;;;;5056437;28;21008;-69
2023/01/24 06:21:23;;;;;;;12.10;9.20;;;1.60;99.90;;;;;;5056589;28;20550;-69
2023/01/24 06:23:50;;;;;;;11.93;9.90;;;1.60;99.90;;;;;;5056540;28;20489;-70
2023/01/24 06:26:18;;;;;;;16.73;10.80;;;1.60;99.90;;;;;;5056815;28;20780;-69
2023/01/24 06:28:45;;;;;;;16.87;11.20;;;1.60;99.90;;;;;;5056153;28;20458;-68
2023/01/24 06:31:23;;;;;;;14.60;9.27;;;1.60;99.90;;;;;;5056301;28;20455;-70
2023/01/24 06:34:19;;;;;;;13.80;10.43;;;1.60;99.90;;;;;;5056556;28;20461;-70
2023/01/24 06:36:56;;;;;;;15.43;10.00;;;1.60;99.90;;;;;;5051152;28;20470;-69
2023/01/24 06:39:23;;;;;;;18.27;10.47;;;1.60;99.90;;;;;;5056012;28;20474;-69
2023/01/24 06:41:51;;;;;;;17.80;10.67;;;1.60;99.90;;;;;;5055666;28;20954;-71
2023/01/24 06:44:18;;;;;;;15.13;9.70;;;1.60;99.90;;;;;;5056090;28;20578;-71
2023/01/24 06:46:47;;;;;;;14.97;10.00;;;1.60;99.90;;;;;;5056385;28;20794;-70
2023/01/24 06:49:14;;;;;;;16.77;10.90;;;1.60;99.90;;;;;;5056306;28;20577;-69
2023/01/24 06:51:40;;;;;;;16.57;10.67;;;1.60;99.90;;;;;;5056404;28;20469;-70
2023/01/24 06:54:07;;;;;;;22.03;13.30;;;1.60;99.90;;;;;;5057278;28;20899;-70
2023/01/24 06:56:34;;;;;;;21.00;12.30;;;1.60;99.90;;;;;;5056318;28;20482;-70
2023/01/24 06:59:01;;;;;;;21.60;11.53;;;1.70;99.90;;;;;;5056290;28;20534;-70
2023/01/24 07:01:28;;;;;;;21.50;11.17;;;1.60;99.90;;;;;;5055877;28;20486;-70
2023/01/24 07:03:56;;;;;;;23.73;11.20;;;1.60;99.90;;;;;;5055958;28;20489;-69
2023/01/24 07:06:23;;;;;;;27.30;13.37;;;1.70;99.90;;;;;;5055732;28;20546;-68
2023/01/24 07:08:50;;;;;;;27.00;13.00;;;1.70;99.90;;;;;;5055092;28;20466;-69
2023/01/24 07:11:17;;;;;;;21.90;12.10;;;1.70;99.90;;;;;;5056085;28;20455;-70
2023/01/24 07:13:44;;;;;;;21.67;12.33;;;1.70;99.90;;;;;;5054892;28;20549;-68
2023/01/24 07:16:11;;;;;;;27.60;14.53;;;1.70;99.90;;;;;;5055287;28;20455;-70
2023/01/24 07:18:38;;;;;;;28.60;15.60;;;1.80;99.90;;;;;;5055544;28;20969;-70
2023/01/24 07:21:08;;;;;;;25.83;13.63;;;1.70;99.90;;;;;;5055523;28;20455;-70
2023/01/24 07:23:37;;;;;;;27.90;13.80;;;1.70;99.90;;;;;;5055953;28;20975;-69
2023/01/24 07:26:09;;;;;;;30.60;14.80;;;1.70;99.90;;;;;;5057530;28;20562;-70
2023/01/24 07:28:35;;;;;;;24.70;13.47;;;1.70;99.90;;;;;;5055876;28;20443;-69
2023/01/24 07:31:02;;;;;;;30.40;14.37;;;1.70;99.90;;;;;;5055211;28;20546;-69
2023/01/24 07:33:30;;;;;;;23.57;13.10;;;1.70;99.90;;;;;;5055077;28;20546;-69
2023/01/24 07:35:56;;;;;;;25.70;14.00;;;1.70;99.90;;;;;;5054844;28;20533;-69
2023/01/24 07:38:25;;;;;;;27.23;14.90;;;1.70;99.90;;;;;;5055111;28;20454;-69
2023/01/24 07:40:52;;;;;;;26.57;13.27;;;1.70;99.90;;;;;;5055010;28;20459;-70
2023/01/24 07:43:20;;;;;;;26.10;13.73;;;1.70;99.90;;;;;;5054761;28;21039;-70
2023/01/24 07:45:47;;;;;;;28.60;13.50;;;1.80;99.90;;;;;;5055252;28;20490;-69
2023/01/24 07:48:14;;;;;;;26.10;13.70;;;1.80;99.90;;;;;;5054970;28;20455;-70
2023/01/24 07:50:41;;;;;;;27.80;12.63;;;1.80;99.90;;;;;;5054513;28;20545;-70
2023/01/24 07:53:07;;;;;;;29.70;13.93;;;1.80;99.90;;;;;;5054808;28;20465;-70
2023/01/24 07:55:36;;;;;;;28.10;14.90;;;1.90;99.90;;;;;;5053804;28;20537;-69
2023/01/24 07:58:04;;;;;;;29.13;13.53;;;1.90;99.90;;;;;;5055078;28;20836;-69
2023/01/24 08:00:31;;;;;;;25.50;13.53;;;1.90;99.90;;;;;;5054099;28;20454;-70
2023/01/24 08:02:57;;;;;;;23.50;13.27;;;1.90;99.90;;;;;;5055651;28;20486;-69
2023/01/24 08:05:25;;;;;;;25.70;13.27;;;2.00;99.90;;;;;;5055776;28;20962;-70
2023/01/24 08:07:54;;;;;;;26.40;12.87;;;2.00;99.90;;;;;;5054564;28;20455;-70
2023/01/24 08:10:21;;;;;;;23.90;13.70;;;1.90;99.90;;;;;;5054589;28;20857;-70
2023/01/24 08:12:50;;;;;;;26.07;13.30;;;1.90;99.90;;;;;;5054469;28;20746;-70
2023/01/24 08:15:17;;;;;;;27.77;12.90;;;2.00;99.90;;;;;;5054470;28;20455;-70
2023/01/24 08:17:43;;;;;;;30.47;14.23;;;2.00;99.90;;;;;;5054047;28;20466;-69
2023/01/24 08:20:11;;;;;;;29.33;14.00;;;2.00;99.90;;;;;;5054852;28;20568;-70
2023/01/24 08:22:39;;;;;;;25.80;14.03;;;2.10;99.90;;;;;;5054939;28;20562;-70
2023/01/24 08:25:07;;;;;;;30.50;13.33;;;2.10;99.90;;;;;;5055467;28;20478;-70
2023/01/24 08:27:34;;;;;;;26.53;14.30;;;2.10;99.90;;;;;;5055401;28;20477;-70
2023/01/24 08:30:02;;;;;;;36.97;18.67;;;2.20;99.90;;;;;;5054767;28;20455;-70
2023/01/24 08:32:31;;;;;;;39.30;17.37;;;2.20;99.90;;;;;;5053941;28;20483;-70
2023/01/24 08:34:58;;;;;;;30.60;15.37;;;2.20;99.90;;;;;;5054756;28;20451;-68
2023/01/24 08:37:25;;;;;;;25.43;13.30;;;2.30;99.90;;;;;;5054341;28;20614;-69
2023/01/24 08:39:52;;;;;;;34.07;15.97;;;2.30;99.90;;;;;;5054094;28;20549;-69
2023/01/24 08:42:18;;;;;;;38.03;18.00;;;2.30;99.90;;;;;;5054382;28;20508;-68
2023/01/24 08:44:45;;;;;;;38.53;17.40;;;2.20;99.90;;;;;;5053945;28;20478;-69
2023/01/24 08:47:13;;;;;;;45.07;17.40;;;2.20;99.90;;;;;;5054299;28;20927;-70
2023/01/24 08:49:40;;;;;;;51.23;18.57;;;2.20;99.90;;;;;;5054378;28;20485;-68
2023/01/24 08:52:07;;;;;;;54.73;22.80;;;2.20;99.90;;;;;;5054413;28;20465;-69
2023/01/24 08:54:35;;;;;;;51.37;19.87;;;2.10;99.90;;;;;;5054317;28;20786;-68
2023/01/24 08:57:02;;;;;;;55.97;20.80;;;2.10;99.90;;;;;;5053751;28;20459;-68
2023/01/24 08:59:29;;;;;;;66.00;23.03;;;2.10;99.90;;;;;;5054215;28;20524;-70
2023/01/24 09:01:56;;;;;;;60.87;20.30;;;2.10;99.90;;;;;;5054061;28;20954;-69
2023/01/24 09:04:26;;;;;;;48.20;21.37;;;2.10;99.90;;;;;;5054833;28;20487;-71
2023/01/24 09:06:52;;;;;;;63.03;23.57;;;2.10;99.90;;;;;;5057200;28;20454;-70
2023/01/24 09:09:19;;;;;;;53.17;22.37;;;2.20;99.90;;;;;;5058453;28;20545;-69
2023/01/24 09:11:46;;;;;;;51.77;21.30;;;2.20;99.90;;;;;;5057848;28;20493;-69
2023/01/24 09:14:13;;;;;;;54.97;22.63;;;2.20;99.90;;;;;;5058012;28;20501;-69
2023/01/24 09:16:40;;;;;;;51.60;19.80;;;2.20;99.90;;;;;;5058379;28;20546;-69
2023/01/24 09:19:07;;;;;;;48.57;22.23;;;2.20;99.90;;;;;;5057979;28;20550;-70
2023/01/24 09:21:36;;;;;;;59.93;21.47;;;2.30;99.90;;;;;;5057421;28;20543;-69
2023/01/24 09:24:03;;;;;;;60.50;22.50;;;2.40;99.90;;;;;;5058075;28;20532;-70
2023/01/24 09:26:30;;;;;;;69.20;26.57;;;2.50;99.90;;;;;;5057689;28;20843;-68
2023/01/24 09:28:57;;;;;;;69.17;29.07;;;2.50;99.90;;;;;;5057934;28;20458;-70
2023/01/24 09:31:23;;;;;;;60.93;28.20;;;2.70;99.90;;;;;;5057413;28;20490;-69
2023/01/24 09:33:50;;;;;;;70.27;28.20;;;2.70;99.90;;;;;;5057219;28;20856;-70
2023/01/24 09:36:17;;;;;;;74.40;28.27;;;2.70;99.90;;;;;;5057891;28;20950;-70
2023/01/24 09:38:45;;;;;;;56.47;25.10;;;2.80;99.90;;;;;;5057088;28;20455;-69
2023/01/24 09:41:25;;;;;;;74.70;26.80;;;2.80;99.90;;;;;;5056938;28;20455;-69
2023/01/24 09:43:54;;;;;;;68.73;27.37;;;2.80;99.90;;;;;;5056725;28;20512;-70
2023/01/24 09:46:29;;;;;;;61.70;25.00;;;2.90;99.90;;;;;;5056730;28;20950;-70
2023/01/24 09:49:10;;;;;;;56.17;24.10;;;3.00;99.90;;;;;;5057196;28;20453;-69
2023/01/24 09:51:41;;;;;;;58.37;22.80;;;3.10;99.90;;;;;;5056922;28;20451;-70
2023/01/24 09:54:18;;;;;;;63.17;24.63;;;3.10;99.90;;;;;;5056696;28;20530;-70
2023/01/24 09:56:47;;;;;;;76.93;25.60;;;3.10;99.90;;;;;;5056989;28;20454;-69
2023/01/24 09:59:21;;;;;;;66.67;22.17;;;3.10;99.90;;;;;;5056324;28;20463;-70
2023/01/24 10:01:48;;;;;;;66.03;24.97;;;3.00;99.90;;;;;;5057005;28;20530;-69
2023/01/24 10:04:21;;;;;;;73.13;25.00;;;3.00;99.90;;;;;;5056924;28;20543;-69
2023/01/24 10:07:37;;;;;;;57.40;22.67;;;2.90;99.90;;;;;;5057036;28;20468;-70
2023/01/24 10:10:18;;;;;;;76.90;27.87;;;2.90;99.90;;;;;;5021633;28;20527;-69
2023/01/24 10:12:54;;;;;;;60.27;24.40;;;3.00;99.90;;;;;;5057017;28;20772;-70
2023/01/24 10:15:39;;;;;;;66.10;26.90;;;3.00;99.90;;;;;;5056638;28;20818;-69
2023/01/24 10:18:23;;;;;;;63.43;26.37;;;3.10;99.90;;;;;;5055829;28;20443;-70
2023/01/24 10:21:08;;;;;;;57.40;26.30;;;3.20;99.90;;;;;;5056592;28;20516;-69
2023/01/24 10:23:39;;;;;;;63.87;24.67;;;3.30;99.90;;;;;;5056350;28;20506;-70
2023/01/24 10:26:17;;;;;;;64.10;22.43;;;3.40;99.90;;;;;;5056276;28;20560;-70
2023/01/24 10:28:50;;;;;;;63.50;23.20;;;3.40;99.90;;;;;;5056128;28;20439;-69
2023/01/24 10:31:21;;;;;;;49.73;21.67;;;3.50;99.90;;;;;;5056548;28;20534;-70
2023/01/24 10:33:49;;;;;;;51.63;21.43;;;3.50;99.90;;;;;;5056561;28;20771;-71
2023/01/24 10:36:25;;;;;;;57.73;22.43;;;3.40;99.90;;;;;;5056183;28;20455;-69
2023/01/24 10:38:52;;;;;;;56.30;23.00;;;3.30;99.90;;;;;;5056637;28;20823;-70
2023/01/24 10:41:22;;;;;;;62.33;22.43;;;3.30;99.90;;;;;;5056711;28;20542;-69
2023/01/24 10:43:55;;;;;;;53.77;20.40;;;3.30;99.90;;;;;;5056309;28;20574;-69
2023/01/24 10:46:54;;;;;;;61.20;22.73;;;3.30;99.90;;;;;;5057730;28;20542;-70
2023/01/24 10:49:24;;;;;;;52.50;22.07;;;3.20;99.90;;;;;;5023929;28;20469;-70
2023/01/24 10:52:14;;;;;;;53.77;21.83;;;3.20;99.90;;;;;;5055905;28;20451;-69
2023/01/24 10:54:47;;;;;;;50.30;21.30;;;3.30;99.90;;;;;;5052096;28;20523;-69
2023/01/24 10:57:35;;;;;;;56.63;20.50;;;3.30;99.90;;;;;;5055800;28;20462;-70
2023/01/24 11:00:06;;;;;;;57.17;21.10;;;3.30;99.90;;;;;;5055900;28;20474;-70
2023/01/24 11:02:34;;;;;;;46.10;20.10;;;3.30;99.90;;;;;;5056198;28;20454;-69
2023/01/24 11:05:04;;;;;;;52.50;20.20;;;3.40;99.90;;;;;;5056358;28;20795;-70
2023/01/24 11:07:33;;;;;;;51.57;22.10;;;3.40;99.90;;;;;;5055262;28;20478;-71
2023/01/24 11:10:02;;;;;;;52.03;21.43;;;3.40;99.90;;;;;;5054775;28;20641;-69
2023/01/24 11:12:30;;;;;;;46.83;19.53;;;3.40;99.90;;;;;;5054715;28;20455;-70
2023/01/24 11:14:57;;;;;;;45.47;20.20;;;3.40;99.90;;;;;;5055172;28;20469;-70
2023/01/24 11:17:32;;;;;;;58.37;22.70;;;3.50;99.90;;;;;;5054861;28;20455;-69
2023/01/24 11:20:05;;;;;;;43.90;19.77;;;3.50;99.90;;;;;;5054867;28;20443;-70
2023/01/24 11:22:34;;;;;;;46.20;20.03;;;3.50;99.90;;;;;;5055076;28;20827;-69
2023/01/24 11:25:05;;;;;;;51.77;17.30;;;3.50;99.90;;;;;;5054981;28;21182;-70
2023/01/24 11:27:45;;;;;;;46.20;20.10;;;3.40;99.90;;;;;;5055262;28;20842;-69
2023/01/24 11:30:17;;;;;;;44.57;20.93;;;3.40;99.90;;;;;;5054907;28;20435;-69
2023/01/24 11:32:58;;;;;;;41.77;18.77;;;3.50;99.90;;;;;;5055011;28;20530;-70
2023/01/24 11:35:28;;;;;;;40.20;20.30;;;3.50;99.90;;;;;;5054612;28;20447;-69
2023/01/24 11:38:15;;;;;;;48.00;19.23;;;3.50;99.90;;;;;;5054907;28;20501;-69
2023/01/24 11:40:46;;;;;;;42.53;19.00;;;3.60;99.90;;;;;;5055250;28;20439;-69
2023/01/24 11:43:36;;;;;;;39.80;19.00;;;3.60;99.90;;;;;;5055083;28;20501;-69
2023/01/24 11:46:30;;;;;;;40.57;17.93;;;3.50;99.90;;;;;;5055789;28;20489;-70
2023/01/24 11:48:59;;;;;;;39.50;18.60;;;3.50;99.90;;;;;;5055077;28;20538;-70
2023/01/24 11:51:43;;;;;;;40.20;18.57;;;3.50;99.90;;;;;;5054663;28;20455;-69
2023/01/24 11:54:36;;;;;;;37.13;17.97;;;3.60;99.90;;;;;;5054592;28;20451;-70
2023/01/24 11:57:11;;;;;;;43.40;18.17;;;3.60;99.90;;;;;;5054174;28;20455;-69
2023/01/24 11:59:54;;;;;;;34.07;17.83;;;3.60;99.90;;;;;;5054947;28;20783;-70
2023/01/24 12:02:44;;;;;;;36.50;18.03;;;3.60;99.90;;;;;;5054557;28;20489;-69
2023/01/24 12:05:33;;;;;;;41.93;20.80;;;3.50;99.90;;;;;;5054840;28;20440;-69
2023/01/24 12:08:20;;;;;;;37.60;18.23;;;3.50;99.90;;;;;;5067082;28;20471;-70
2023/01/24 12:10:58;;;;;;;39.80;21.03;;;3.50;99.90;;;;;;5074587;28;20434;-70
2023/01/24 12:13:33;;;;;;;36.23;19.03;;;3.50;99.90;;;;;;5074542;28;20438;-70
2023/01/24 12:16:12;;;;;;;36.30;18.20;;;3.60;99.90;;;;;;5074752;28;20792;-69
2023/01/24 12:18:59;;;;;;;39.87;18.57;;;3.60;99.90;;;;;;5056356;28;20457;-69
2023/01/24 12:21:25;;;;;;;39.30;18.20;;;3.70;99.90;;;;;;5054563;28;20482;-70
2023/01/24 12:23:57;;;;;;;46.27;21.30;;;3.70;99.90;;;;;;5054494;28;20649;-70
2023/01/24 12:26:27;;;;;;;32.77;17.90;;;3.70;99.90;;;;;;5054451;28;20471;-70
2023/01/24 12:29:03;;;;;;;39.13;17.80;;;3.70;99.90;;;;;;5054472;28;20455;-68
2023/01/24 12:31:47;;;;;;;40.57;18.83;;;3.70;99.90;;;;;;5054726;28;20503;-69
2023/01/24 12:34:32;;;;;;;38.70;18.27;;;3.70;99.90;;;;;;5054731;28;20435;-69
2023/01/24 12:37:02;;;;;;;37.57;16.70;;;3.80;99.90;;;;;;5055542;28;20451;-69
2023/01/24 12:39:44;;;;;;;45.03;21.13;;;3.80;99.90;;;;;;5054277;28;20443;-69
2023/01/24 12:42:17;;;;;;;52.73;25.60;;;3.80;99.90;;;;;;5057557;28;20499;-68
2023/01/24 12:44:51;;;;;;;37.13;17.60;;;3.80;99.90;;;;;;5057722;28;20861;-70
2023/01/24 12:47:29;;;;;;;35.60;19.73;;;3.80;99.90;;;;;;5058402;28;20467;-69
2023/01/24 12:50:09;;;;;;;38.00;17.87;;;3.90;99.90;;;;;;5058105;28;20439;-69
2023/01/24 12:52:43;;;;;;;36.97;18.03;;;3.90;99.90;;;;;;5059910;28;20891;-69
2023/01/24 12:55:15;;;;;;;41.70;19.77;;;3.80;99.90;;;;;;5059188;28;20950;-69
2023/01/24 12:57:46;;;;;;;38.33;18.93;;;3.80;99.90;;;;;;5058472;28;20441;-69
2023/01/24 13:00:20;;;;;;;38.60;18.73;;;3.70;99.90;;;;;;5058457;28;20880;-69
2023/01/24 13:03:28;;;;;;;42.43;18.90;;;3.70;99.90;;;;;;5057743;28;20537;-69
2023/01/24 13:06:05;;;;;;;42.00;19.23;;;3.70;99.90;;;;;;5037210;28;20569;-69
2023/01/24 13:08:47;;;;;;;46.13;19.47;;;3.70;99.90;;;;;;5057051;28;20453;-70
2023/01/24 13:11:19;;;;;;;35.90;17.70;;;3.70;99.90;;;;;;5057172;28;20442;-69
2023/01/24 13:13:53;;;;;;;40.67;19.17;;;3.70;99.90;;;;;;5057088;28;20534;-68
2023/01/24 13:16:45;;;;;;;36.87;16.73;;;3.80;99.90;;;;;;5057393;28;20796;-70
2023/01/24 13:19:25;;;;;;;40.50;18.50;;;3.80;99.90;;;;;;5054894;28;20491;-69
2023/01/24 13:22:00;;;;;;;40.00;16.40;;;3.90;99.90;;;;;;5057160;28;20522;-69
2023/01/24 13:24:49;;;;;;;39.43;20.10;;;3.90;99.90;;;;;;5057642;28;20530;-69
2023/01/24 13:27:27;;;;;;;37.90;18.30;;;4.00;99.90;;;;;;5057115;28;20466;-70
2023/01/24 13:30:13;;;;;;;39.80;17.60;;;3.90;99.90;;;;;;5056865;28;20534;-70
2023/01/24 13:32:40;;;;;;;33.63;17.00;;;3.90;99.90;;;;;;5057215;28;20785;-69
2023/01/24 13:35:17;;;;;;;40.60;17.37;;;3.80;99.90;;;;;;5075916;28;20454;-70
2023/01/24 13:37:50;;;;;;;35.10;16.67;;;3.80;99.90;;;;;;5075620;28;20446;-69